Información del aeropuerto GMTT

Información de pista
Pista 07 Longitud 6562 ft Anchura 98 ft
Elevación 0 ft Umbral 0 ft Rumbo 69
Pista 25 Longitud 6562 ft Anchura 98 ft
Elevación 0 ft Umbral 0 ft Rumbo 249
Pista 10 Longitud 11483 ft Anchura 148 ft
Elevación 20 ft Umbral 0 ft Rumbo 96
Pista 28 Longitud 11483 ft Anchura 148 ft
Elevación 62 ft Umbral 1640 ft Rumbo 276
Frecuencias del aeropuerto
Tipo APP Nombre TANGER APP Frecuencia 121.2 MHZ
Tipo TWR Nombre TANGER TWR Frecuencia 119.5 MHZ
Radioayudas del aeropuerto
Tipo VOR-DME Nombre Tanger Frecuencia 115900 KHZ
Información meteorológica del aeropuerto y NOTAM
ADDS - METARS form results

(0939 UTC 19 April 2021)
Data provider http://aviationweather.gov/metar/data/
 
METAR text: GMTT 190930Z 08008KT 050V110 CAVOK 21/11 Q1018 NOSIG
Conditions at: GMTT (TANGIER/BOUKHALF, MA) observed 0930 UTC 19 April 2021
Temperature: 21.0°C (70°F)
Dewpoint: 11.0°C (52°F) [RH = 53%]
Pressure (altimeter): 30.06 inches Hg (1018.0 mb)
Winds: from the E (80 degrees) at 9 MPH (8 knots; 4.1 m/s)
Visibility: 6 or more miles (10+ km)
Ceiling: ceiling and visibility are OK
Clouds: unknown
Weather: no significant weather observed at this time

METAR text: GMTT 190900Z 08010KT 050V110 CAVOK 20/11 Q1018 NOSIG
Conditions at: GMTT (TANGIER/BOUKHALF, MA) observed 0900 UTC 19 April 2021
Temperature: 20.0°C (68°F)
Dewpoint: 11.0°C (52°F) [RH = 56%]
Pressure (altimeter): 30.06 inches Hg (1018.0 mb)
Winds: from the E (80 degrees) at 12 MPH (10 knots; 5.1 m/s)
Visibility: 6 or more miles (10+ km)
Ceiling: ceiling and visibility are OK
Clouds: unknown
Weather: no significant weather observed at this time

Forecast for: GMTT (TANGIER/BOUKHALF, MA)
Text: TAF GMTT 190500Z 1906/2012 07009KT CAVOK
Forecast period: 0600 UTC 19 April 2021 to 1200 UTC 20 April 2021
Forecast type: FROM: standard forecast or significant change
Winds: from the ENE (70 degrees) at 10 MPH (9 knots; 4.6 m/s)
Visibility: 6 or more miles (10+ km)
Ceiling: unknown
Clouds: missing
Weather: NSW  (no significant weather)